19 April 2014 Space
GT Aviation logo and link to the homepage
GT Aviation logo and link to the homepage Space
Space

GT Aviation UK - Airfield Weather Information

 

Weather information for EGHH


19 minutes ago, at 19:20 UTC, the wind was blowing at a speed of 0.5 meters per second (1.2 miles per hour) from South/Southeast in EGHH. The temperature was 9 degrees Celsius (48 degrees Fahrenheit), and the pressure was 1,015 hPa (29.97 inHg). The relative humidity was 76.0%. There were broken clouds at a height of 1433 meter (4700 feet). The visibility was >11.3 kilometers (>7 miles).

The METAR this information has been retrieved from is: EGHH 191920Z 16001KT 9999 BKN047 09/05 Q1015

Search again?
Enter ICAO code: and show the report in
Don't know the ICAO code of the airport you want weather for?

To see a graphical view of the weather for EGHH, click here to visit SkyLinkWeather

 



GT Aviation UK
PO Box 15, WEYMOUTH DT4 8DS, UK
Email jane@gtaviation.co.uk Web www.gtaviation.co.uk

Use of this website constitutes acceptance of our User Agreement

TYNT INSIGHT technology is in use on this website to monitor text and pictures being copied from it. A record is kept only of the content copied.